sensor_id;sensor_type;location;lat;lon;timestamp;pressure;altitude;pressure_sealevel;temperature;humidity
56689;BME280;42565;53.342;-1.534;2023-07-28T00:02:33;97821.62;;;30.96;47.38
56689;BME280;42565;53.342;-1.534;2023-07-28T00:05:01;97826.26;;;30.64;47.93
56689;BME280;42565;53.342;-1.534;2023-07-28T00:07:29;97822.95;;;30.99;47.74
56689;BME280;42565;53.342;-1.534;2023-07-28T00:09:56;97826.86;;;30.88;47.47
56689;BME280;42565;53.342;-1.534;2023-07-28T00:12:23;97824.63;;;30.48;47.21
56689;BME280;42565;53.342;-1.534;2023-07-28T00:14:51;97825.24;;;31.25;47.19
56689;BME280;42565;53.342;-1.534;2023-07-28T00:17:19;97824.84;;;30.59;47.13
56689;BME280;42565;53.342;-1.534;2023-07-28T00:19:46;97825.28;;;31.24;46.98
56689;BME280;42565;53.342;-1.534;2023-07-28T00:22:13;97825.03;;;30.98;47.14
56689;BME280;42565;53.342;-1.534;2023-07-28T00:24:40;97825.13;;;31.23;46.99
56689;BME280;42565;53.342;-1.534;2023-07-28T00:27:07;97822.51;;;31.31;46.91
56689;BME280;42565;53.342;-1.534;2023-07-28T00:29:35;97822.42;;;28.83;57.69
56689;BME280;42565;53.342;-1.534;2023-07-28T00:32:02;97821.74;;;29.10;59.95
56689;BME280;42565;53.342;-1.534;2023-07-28T00:34:30;97817.41;;;28.85;60.92
56689;BME280;42565;53.342;-1.534;2023-07-28T00:36:57;97818.98;;;29.22;60.78
56689;BME280;42565;53.342;-1.534;2023-07-28T00:39:30;97819.26;;;29.09;60.23
56689;BME280;42565;53.342;-1.534;2023-07-28T00:41:58;97818.86;;;29.31;60.26
56689;BME280;42565;53.342;-1.534;2023-07-28T00:44:25;97818.14;;;29.12;60.74
56689;BME280;42565;53.342;-1.534;2023-07-28T00:46:53;97817.88;;;28.83;58.14
56689;BME280;42565;53.342;-1.534;2023-07-28T00:49:20;97815.64;;;27.86;52.80
56689;BME280;42565;53.342;-1.534;2023-07-28T00:51:48;97814.21;;;28.74;53.31
56689;BME280;42565;53.342;-1.534;2023-07-28T00:54:17;97813.86;;;29.35;50.77
56689;BME280;42565;53.342;-1.534;2023-07-28T00:56:45;97814.37;;;30.25;49.67
56689;BME280;42565;53.342;-1.534;2023-07-28T00:59:13;97814.70;;;29.82;48.34
56689;BME280;42565;53.342;-1.534;2023-07-28T01:01:40;97815.39;;;30.13;47.73
56689;BME280;42565;53.342;-1.534;2023-07-28T01:04:08;97818.61;;;30.45;47.25
56689;BME280;42565;53.342;-1.534;2023-07-28T01:06:40;97820.71;;;30.69;46.87
56689;BME280;42565;53.342;-1.534;2023-07-28T01:09:13;97823.11;;;28.77;50.90
56689;BME280;42565;53.342;-1.534;2023-07-28T01:11:53;97819.33;;;28.83;51.44
56689;BME280;42565;53.342;-1.534;2023-07-28T01:14:21;97816.17;;;27.84;62.54
56689;BME280;42565;53.342;-1.534;2023-07-28T01:16:48;97812.17;;;28.51;66.86
56689;BME280;42565;53.342;-1.534;2023-07-28T01:19:17;97808.53;;;28.44;61.81
56689;BME280;42565;53.342;-1.534;2023-07-28T01:21:49;97805.86;;;28.83;59.03
56689;BME280;42565;53.342;-1.534;2023-07-28T01:24:24;97806.53;;;27.43;53.32
56689;BME280;42565;53.342;-1.534;2023-07-28T01:26:55;97812.46;;;28.15;52.10
56689;BME280;42565;53.342;-1.534;2023-07-28T01:29:23;97814.12;;;28.23;50.97
56689;BME280;42565;53.342;-1.534;2023-07-28T01:31:51;97814.91;;;28.83;50.46
56689;BME280;42565;53.342;-1.534;2023-07-28T01:34:19;97817.31;;;28.54;50.46
56689;BME280;42565;53.342;-1.534;2023-07-28T01:36:47;97816.08;;;29.23;50.13
56689;BME280;42565;53.342;-1.534;2023-07-28T01:39:14;97813.14;;;29.12;49.26
56689;BME280;42565;53.342;-1.534;2023-07-28T01:41:42;97813.45;;;29.45;49.37
56689;BME280;42565;53.342;-1.534;2023-07-28T01:44:09;97812.77;;;29.17;47.99
56689;BME280;42565;53.342;-1.534;2023-07-28T01:46:37;97813.18;;;29.61;48.18
56689;BME280;42565;53.342;-1.534;2023-07-28T01:49:05;97811.74;;;29.56;48.01
56689;BME280;42565;53.342;-1.534;2023-07-28T01:51:32;97813.16;;;29.34;48.18
56689;BME280;42565;53.342;-1.534;2023-07-28T01:53:59;97813.43;;;29.52;47.54
56689;BME280;42565;53.342;-1.534;2023-07-28T01:56:27;97815.05;;;29.37;47.65
56689;BME280;42565;53.342;-1.534;2023-07-28T01:58:54;97819.93;;;29.85;47.54
56689;BME280;42565;53.342;-1.534;2023-07-28T02:01:22;97820.50;;;28.91;47.00
56689;BME280;42565;53.342;-1.534;2023-07-28T02:03:49;97820.56;;;29.68;46.86
56689;BME280;42565;53.342;-1.534;2023-07-28T02:06:18;97817.00;;;29.82;46.84
56689;BME280;42565;53.342;-1.534;2023-07-28T02:08:45;97813.96;;;30.24;46.49
56689;BME280;42565;53.342;-1.534;2023-07-28T02:11:12;97812.28;;;30.25;46.54
56689;BME280;42565;53.342;-1.534;2023-07-28T02:13:39;97811.54;;;30.26;47.21
56689;BME280;42565;53.342;-1.534;2023-07-28T02:16:07;97810.09;;;29.88;46.68
56689;BME280;42565;53.342;-1.534;2023-07-28T02:18:34;97811.05;;;29.92;46.74
56689;BME280;42565;53.342;-1.534;2023-07-28T02:21:07;97805.14;;;30.09;47.50
56689;BME280;42565;53.342;-1.534;2023-07-28T02:23:34;97804.05;;;30.04;46.67
56689;BME280;42565;53.342;-1.534;2023-07-28T02:26:02;97803.34;;;30.37;46.54
56689;BME280;42565;53.342;-1.534;2023-07-28T02:28:29;97800.35;;;30.30;46.53
56689;BME280;42565;53.342;-1.534;2023-07-28T02:30:57;97795.96;;;28.52;48.17
56689;BME280;42565;53.342;-1.534;2023-07-28T02:33:24;97794.25;;;28.06;48.73
56689;BME280;42565;53.342;-1.534;2023-07-28T02:35:54;97795.93;;;29.16;48.80
56689;BME280;42565;53.342;-1.534;2023-07-28T02:38:21;97795.45;;;28.18;48.79
56689;BME280;42565;53.342;-1.534;2023-07-28T02:40:48;97793.56;;;29.05;48.65
56689;BME280;42565;53.342;-1.534;2023-07-28T02:43:15;97794.11;;;28.63;48.40
56689;BME280;42565;53.342;-1.534;2023-07-28T02:45:42;97792.82;;;29.29;48.76
56689;BME280;42565;53.342;-1.534;2023-07-28T02:48:10;97795.86;;;28.91;48.97
56689;BME280;42565;53.342;-1.534;2023-07-28T02:50:45;97793.04;;;29.16;48.86
56689;BME280;42565;53.342;-1.534;2023-07-28T02:53:13;97792.25;;;27.52;53.09
56689;BME280;42565;53.342;-1.534;2023-07-28T02:55:41;97791.46;;;27.95;50.57
56689;BME280;42565;53.342;-1.534;2023-07-28T02:58:08;97790.34;;;28.34;51.88
56689;BME280;42565;53.342;-1.534;2023-07-28T03:00:37;97789.02;;;28.24;51.25
56689;BME280;42565;53.342;-1.534;2023-07-28T03:03:04;97788.33;;;28.85;50.69
56689;BME280;42565;53.342;-1.534;2023-07-28T03:05:32;97791.52;;;28.69;50.62
56689;BME280;42565;53.342;-1.534;2023-07-28T03:07:59;97789.99;;;29.33;50.75
56689;BME280;42565;53.342;-1.534;2023-07-28T03:10:26;97792.48;;;28.38;50.22
56689;BME280;42565;53.342;-1.534;2023-07-28T03:12:54;97790.69;;;29.28;50.24
56689;BME280;42565;53.342;-1.534;2023-07-28T03:15:22;97786.41;;;28.22;50.88
56689;BME280;42565;53.342;-1.534;2023-07-28T03:17:50;97786.14;;;28.20;51.61
56689;BME280;42565;53.342;-1.534;2023-07-28T03:20:18;97791.63;;;28.03;51.44
56689;BME280;42565;53.342;-1.534;2023-07-28T03:22:50;97789.04;;;28.80;51.08
56689;BME280;42565;53.342;-1.534;2023-07-28T03:25:18;97788.52;;;29.38;50.75
56689;BME280;42565;53.342;-1.534;2023-07-28T03:27:45;97790.67;;;28.47;51.20
56689;BME280;42565;53.342;-1.534;2023-07-28T03:30:14;97794.65;;;28.84;51.04
56689;BME280;42565;53.342;-1.534;2023-07-28T03:32:46;97795.31;;;28.57;51.20
56689;BME280;42565;53.342;-1.534;2023-07-28T03:35:14;97798.00;;;28.89;51.47
56689;BME280;42565;53.342;-1.534;2023-07-28T03:37:41;97798.98;;;29.04;50.89
56689;BME280;42565;53.342;-1.534;2023-07-28T03:40:08;97800.44;;;29.15;50.61
56689;BME280;42565;53.342;-1.534;2023-07-28T03:42:45;97805.11;;;28.94;50.46
56689;BME280;42565;53.342;-1.534;2023-07-28T03:45:17;97806.71;;;28.94;51.27
56689;BME280;42565;53.342;-1.534;2023-07-28T03:47:56;97805.09;;;28.77;56.49
56689;BME280;42565;53.342;-1.534;2023-07-28T03:50:23;97801.26;;;26.85;54.56
56689;BME280;42565;53.342;-1.534;2023-07-28T03:52:50;97797.59;;;27.85;54.61
56689;BME280;42565;53.342;-1.534;2023-07-28T03:55:17;97802.20;;;27.54;54.42
56689;BME280;42565;53.342;-1.534;2023-07-28T03:57:49;97800.28;;;28.18;54.69
56689;BME280;42565;53.342;-1.534;2023-07-28T04:00:17;97799.15;;;27.94;54.98
56689;BME280;42565;53.342;-1.534;2023-07-28T04:02:44;97799.40;;;28.74;54.50
56689;BME280;42565;53.342;-1.534;2023-07-28T04:05:12;97802.43;;;29.11;54.03
56689;BME280;42565;53.342;-1.534;2023-07-28T04:07:39;97801.09;;;28.95;54.49
56689;BME280;42565;53.342;-1.534;2023-07-28T04:10:07;97797.83;;;29.27;50.55
56689;BME280;42565;53.342;-1.534;2023-07-28T04:12:34;97802.30;;;28.46;55.35
56689;BME280;42565;53.342;-1.534;2023-07-28T04:15:08;97803.69;;;23.00;56.10
56689;BME280;42565;53.342;-1.534;2023-07-28T04:17:35;97803.22;;;20.71;61.30
56689;BME280;42565;53.342;-1.534;2023-07-28T04:20:08;97813.90;;;19.44;65.52
56689;BME280;42565;53.342;-1.534;2023-07-28T04:22:35;97823.31;;;19.22;66.92
56689;BME280;42565;53.342;-1.534;2023-07-28T04:25:02;97822.54;;;18.74;68.62
56689;BME280;42565;53.342;-1.534;2023-07-28T04:27:30;97820.26;;;18.06;69.89
56689;BME280;42565;53.342;-1.534;2023-07-28T04:29:58;97818.89;;;18.56;71.11
56689;BME280;42565;53.342;-1.534;2023-07-28T04:32:25;97818.83;;;17.82;71.64
56689;BME280;42565;53.342;-1.534;2023-07-28T04:34:52;97817.82;;;18.48;72.13
56689;BME280;42565;53.342;-1.534;2023-07-28T04:37:19;97814.95;;;17.59;72.26
56689;BME280;42565;53.342;-1.534;2023-07-28T04:39:46;97814.05;;;18.48;71.59
56689;BME280;42565;53.342;-1.534;2023-07-28T04:42:14;97813.71;;;18.01;72.56
56689;BME280;42565;53.342;-1.534;2023-07-28T04:44:42;97816.05;;;17.34;75.21
56689;BME280;42565;53.342;-1.534;2023-07-28T04:47:09;97816.37;;;17.80;74.68
56689;BME280;42565;53.342;-1.534;2023-07-28T04:49:35;97817.10;;;17.49;75.12
56689;BME280;42565;53.342;-1.534;2023-07-28T04:52:03;97814.81;;;17.90;74.77
56689;BME280;42565;53.342;-1.534;2023-07-28T04:54:30;97814.98;;;17.71;74.39
56689;BME280;42565;53.342;-1.534;2023-07-28T04:56:58;97819.00;;;17.81;74.65
56689;BME280;42565;53.342;-1.534;2023-07-28T04:59:26;97826.64;;;16.39;76.48
56689;BME280;42565;53.342;-1.534;2023-07-28T05:01:53;97827.27;;;17.55;75.19
56689;BME280;42565;53.342;-1.534;2023-07-28T05:04:20;97826.39;;;17.21;75.50
56689;BME280;42565;53.342;-1.534;2023-07-28T05:06:48;97828.32;;;17.35;75.87
56689;BME280;42565;53.342;-1.534;2023-07-28T05:09:15;97828.62;;;16.54;77.50
56689;BME280;42565;53.342;-1.534;2023-07-28T05:11:42;97828.03;;;16.80;78.79
56689;BME280;42565;53.342;-1.534;2023-07-28T05:14:10;97827.71;;;16.43;80.18
56689;BME280;42565;53.342;-1.534;2023-07-28T05:16:38;97829.67;;;16.54;79.83
56689;BME280;42565;53.342;-1.534;2023-07-28T05:19:06;97833.49;;;16.88;79.05
56689;BME280;42565;53.342;-1.534;2023-07-28T05:21:34;97833.08;;;16.78;78.90
56689;BME280;42565;53.342;-1.534;2023-07-28T05:24:01;97833.63;;;16.85;80.71
56689;BME280;42565;53.342;-1.534;2023-07-28T05:26:29;97831.48;;;16.32;82.28
56689;BME280;42565;53.342;-1.534;2023-07-28T05:28:56;97834.39;;;15.19;86.33
56689;BME280;42565;53.342;-1.534;2023-07-28T05:31:24;97842.83;;;15.26;86.46
56689;BME280;42565;53.342;-1.534;2023-07-28T05:33:51;97848.47;;;15.63;88.17
56689;BME280;42565;53.342;-1.534;2023-07-28T05:36:18;97849.12;;;15.21;87.37
56689;BME280;42565;53.342;-1.534;2023-07-28T05:38:46;97844.82;;;15.72;87.04
56689;BME280;42565;53.342;-1.534;2023-07-28T05:41:13;97850.37;;;14.99;90.83
56689;BME280;42565;53.342;-1.534;2023-07-28T05:43:40;97849.27;;;15.56;88.57
56689;BME280;42565;53.342;-1.534;2023-07-28T05:46:08;97844.60;;;15.68;89.37
56689;BME280;42565;53.342;-1.534;2023-07-28T05:48:34;97840.31;;;15.79;88.98
56689;BME280;42565;53.342;-1.534;2023-07-28T05:51:07;97835.27;;;16.15;87.51
56689;BME280;42565;53.342;-1.534;2023-07-28T05:53:35;97829.87;;;15.41;89.68
56689;BME280;42565;53.342;-1.534;2023-07-28T05:56:02;97826.69;;;15.51;90.44
56689;BME280;42565;53.342;-1.534;2023-07-28T05:58:30;97825.50;;;16.08;88.14
56689;BME280;42565;53.342;-1.534;2023-07-28T06:00:57;97829.41;;;15.43;91.56
56689;BME280;42565;53.342;-1.534;2023-07-28T06:03:25;97825.65;;;14.94;91.39
56689;BME280;42565;53.342;-1.534;2023-07-28T06:05:52;97824.93;;;16.16;88.89
56689;BME280;42565;53.342;-1.534;2023-07-28T06:08:20;97824.23;;;16.28;86.48
56689;BME280;42565;53.342;-1.534;2023-07-28T06:10:54;97830.77;;;15.65;88.94
56689;BME280;42565;53.342;-1.534;2023-07-28T06:13:21;97831.38;;;15.41;88.75
56689;BME280;42565;53.342;-1.534;2023-07-28T06:15:49;97834.87;;;16.53;88.03
56689;BME280;42565;53.342;-1.534;2023-07-28T06:18:16;97840.01;;;14.77;94.83
56689;BME280;42565;53.342;-1.534;2023-07-28T06:20:49;97841.12;;;15.50;95.61
56689;BME280;42565;53.342;-1.534;2023-07-28T06:23:16;97835.94;;;15.42;94.86
56689;BME280;42565;53.342;-1.534;2023-07-28T06:25:44;97835.68;;;15.64;92.81
56689;BME280;42565;53.342;-1.534;2023-07-28T06:28:17;97824.83;;;15.76;92.60
56689;BME280;42565;53.342;-1.534;2023-07-28T06:30:44;97822.80;;;17.04;95.89
56689;BME280;42565;53.342;-1.534;2023-07-28T06:33:11;97826.32;;;16.18;88.30
56689;BME280;42565;53.342;-1.534;2023-07-28T06:35:38;97827.39;;;15.99;88.63
56689;BME280;42565;53.342;-1.534;2023-07-28T06:38:05;97824.17;;;16.30;89.74
56689;BME280;42565;53.342;-1.534;2023-07-28T06:40:33;97830.65;;;15.46;95.26
56689;BME280;42565;53.342;-1.534;2023-07-28T06:42:59;97829.78;;;16.05;92.65
56689;BME280;42565;53.342;-1.534;2023-07-28T06:45:27;97828.67;;;15.53;92.85
56689;BME280;42565;53.342;-1.534;2023-07-28T06:47:54;97836.54;;;15.09;96.55
56689;BME280;42565;53.342;-1.534;2023-07-28T06:50:21;97839.39;;;14.42;97.11
56689;BME280;42565;53.342;-1.534;2023-07-28T06:52:49;97841.83;;;15.51;95.40
56689;BME280;42565;53.342;-1.534;2023-07-28T06:55:17;97833.19;;;14.92;94.76
56689;BME280;42565;53.342;-1.534;2023-07-28T06:57:46;97836.53;;;15.94;92.57
56689;BME280;42565;53.342;-1.534;2023-07-28T07:00:14;97835.11;;;15.21;94.48
56689;BME280;42565;53.342;-1.534;2023-07-28T07:02:41;97834.13;;;15.50;93.05
56689;BME280;42565;53.342;-1.534;2023-07-28T07:05:09;97833.35;;;16.43;90.91
56689;BME280;42565;53.342;-1.534;2023-07-28T07:07:38;97832.13;;;15.57;91.49
56689;BME280;42565;53.342;-1.534;2023-07-28T07:10:06;97832.16;;;16.43;89.74
56689;BME280;42565;53.342;-1.534;2023-07-28T07:12:34;97832.70;;;16.67;87.30
56689;BME280;42565;53.342;-1.534;2023-07-28T07:15:01;97839.18;;;15.72;93.31
56689;BME280;42565;53.342;-1.534;2023-07-28T07:17:28;97842.58;;;16.12;90.47
56689;BME280;42565;53.342;-1.534;2023-07-28T07:19:56;97844.01;;;16.21;89.74
56689;BME280;42565;53.342;-1.534;2023-07-28T07:22:22;97849.48;;;16.34;89.65
56689;BME280;42565;53.342;-1.534;2023-07-28T07:24:50;97849.35;;;15.93;90.37
56689;BME280;42565;53.342;-1.534;2023-07-28T07:27:18;97848.56;;;15.12;93.78
56689;BME280;42565;53.342;-1.534;2023-07-28T07:29:45;97851.57;;;16.41;91.33
56689;BME280;42565;53.342;-1.534;2023-07-28T07:32:13;97850.16;;;15.65;92.87
56689;BME280;42565;53.342;-1.534;2023-07-28T07:34:40;97862.45;;;15.10;97.83
56689;BME280;42565;53.342;-1.534;2023-07-28T07:37:08;97856.27;;;16.64;90.91
56689;BME280;42565;53.342;-1.534;2023-07-28T07:39:36;97860.58;;;16.53;90.08
56689;BME280;42565;53.342;-1.534;2023-07-28T07:42:03;97865.98;;;16.09;89.78
56689;BME280;42565;53.342;-1.534;2023-07-28T07:44:30;97874.74;;;16.20;89.30
56689;BME280;42565;53.342;-1.534;2023-07-28T07:47:00;97874.12;;;16.93;88.08
56689;BME280;42565;53.342;-1.534;2023-07-28T07:49:28;97874.31;;;16.03;88.03
56689;BME280;42565;53.342;-1.534;2023-07-28T07:51:55;97870.10;;;16.54;88.36
56689;BME280;42565;53.342;-1.534;2023-07-28T07:54:23;97869.09;;;16.15;87.81
56689;BME280;42565;53.342;-1.534;2023-07-28T07:56:50;97866.56;;;16.89;87.98
56689;BME280;42565;53.342;-1.534;2023-07-28T07:59:18;97863.73;;;16.39;87.42
56689;BME280;42565;53.342;-1.534;2023-07-28T08:01:45;97866.70;;;16.53;90.12
56689;BME280;42565;53.342;-1.534;2023-07-28T08:04:13;97865.12;;;17.14;86.34
56689;BME280;42565;53.342;-1.534;2023-07-28T08:06:40;97867.36;;;17.68;84.80
56689;BME280;42565;53.342;-1.534;2023-07-28T08:09:08;97869.74;;;18.20;83.05
56689;BME280;42565;53.342;-1.534;2023-07-28T08:11:35;97854.57;;;16.64;85.94
56689;BME280;42565;53.342;-1.534;2023-07-28T08:14:03;97866.96;;;17.16;85.31
56689;BME280;42565;53.342;-1.534;2023-07-28T08:16:30;97873.72;;;17.31;85.76
56689;BME280;42565;53.342;-1.534;2023-07-28T08:18:58;97872.29;;;17.83;83.59
56689;BME280;42565;53.342;-1.534;2023-07-28T08:21:26;97865.44;;;17.57;82.58
56689;BME280;42565;53.342;-1.534;2023-07-28T08:23:53;97866.27;;;18.46;79.96
56689;BME280;42565;53.342;-1.534;2023-07-28T08:26:20;97873.54;;;17.62;79.04
56689;BME280;42565;53.342;-1.534;2023-07-28T08:28:47;97879.66;;;18.90;76.81
56689;BME280;42565;53.342;-1.534;2023-07-28T08:31:15;97884.18;;;17.97;79.04
56689;BME280;42565;53.342;-1.534;2023-07-28T08:33:42;97886.85;;;18.15;77.86
56689;BME280;42565;53.342;-1.534;2023-07-28T08:36:10;97884.43;;;18.94;76.33
56689;BME280;42565;53.342;-1.534;2023-07-28T08:38:37;97882.20;;;18.77;76.60
56689;BME280;42565;53.342;-1.534;2023-07-28T08:41:04;97883.44;;;18.16;79.76
56689;BME280;42565;53.342;-1.534;2023-07-28T08:43:32;97887.51;;;18.22;78.26
56689;BME280;42565;53.342;-1.534;2023-07-28T08:45:59;97883.87;;;18.00;79.55
56689;BME280;42565;53.342;-1.534;2023-07-28T08:48:32;97885.03;;;17.82;79.63
56689;BME280;42565;53.342;-1.534;2023-07-28T08:50:59;97889.36;;;18.53;77.63
56689;BME280;42565;53.342;-1.534;2023-07-28T08:53:25;97891.36;;;18.22;76.41
56689;BME280;42565;53.342;-1.534;2023-07-28T08:55:53;97891.02;;;18.43;75.63
56689;BME280;42565;53.342;-1.534;2023-07-28T08:58:22;97893.14;;;17.25;78.80
56689;BME280;42565;53.342;-1.534;2023-07-28T09:00:51;97894.92;;;18.83;76.01
56689;BME280;42565;53.342;-1.534;2023-07-28T09:03:19;97892.85;;;17.76;77.45
56689;BME280;42565;53.342;-1.534;2023-07-28T09:05:47;97889.64;;;18.49;76.86
56689;BME280;42565;53.342;-1.534;2023-07-28T09:08:15;97891.27;;;17.68;79.63
56689;BME280;42565;53.342;-1.534;2023-07-28T09:10:43;97885.58;;;18.00;79.19
56689;BME280;42565;53.342;-1.534;2023-07-28T09:13:12;97889.67;;;17.59;79.36
56689;BME280;42565;53.342;-1.534;2023-07-28T09:15:40;97889.92;;;17.78;77.59
56689;BME280;42565;53.342;-1.534;2023-07-28T09:18:09;97893.68;;;17.70;78.87
56689;BME280;42565;53.342;-1.534;2023-07-28T09:20:37;97891.73;;;17.87;77.62
56689;BME280;42565;53.342;-1.534;2023-07-28T09:23:05;97892.27;;;18.58;74.97
56689;BME280;42565;53.342;-1.534;2023-07-28T09:25:33;97892.61;;;17.95;76.07
56689;BME280;42565;53.342;-1.534;2023-07-28T09:28:05;97891.39;;;17.97;76.24
56689;BME280;42565;53.342;-1.534;2023-07-28T09:30:49;97890.11;;;17.98;77.37
56689;BME280;42565;53.342;-1.534;2023-07-28T09:33:34;97891.42;;;17.76;76.76
56689;BME280;42565;53.342;-1.534;2023-07-28T09:36:08;97889.44;;;17.55;78.90
56689;BME280;42565;53.342;-1.534;2023-07-28T09:38:37;97891.08;;;18.13;77.24
56689;BME280;42565;53.342;-1.534;2023-07-28T09:41:05;97893.32;;;18.31;77.13
56689;BME280;42565;53.342;-1.534;2023-07-28T09:43:31;97899.73;;;17.92;76.25
56689;BME280;42565;53.342;-1.534;2023-07-28T09:45:59;97895.31;;;17.71;79.39
56689;BME280;42565;53.342;-1.534;2023-07-28T09:48:31;97900.12;;;17.37;81.21
56689;BME280;42565;53.342;-1.534;2023-07-28T09:51:12;97899.76;;;17.42;80.46
56689;BME280;42565;53.342;-1.534;2023-07-28T09:53:46;97899.15;;;17.48;78.43
56689;BME280;42565;53.342;-1.534;2023-07-28T09:56:16;97900.00;;;17.46;77.79
56689;BME280;42565;53.342;-1.534;2023-07-28T09:58:49;97902.08;;;17.87;77.30
56689;BME280;42565;53.342;-1.534;2023-07-28T10:01:17;97904.35;;;18.25;73.77
56689;BME280;42565;53.342;-1.534;2023-07-28T10:03:45;97903.41;;;18.47;73.62
56689;BME280;42565;53.342;-1.534;2023-07-28T10:06:14;97902.06;;;18.44;71.60
56689;BME280;42565;53.342;-1.534;2023-07-28T10:08:42;97900.22;;;18.95;71.14
56689;BME280;42565;53.342;-1.534;2023-07-28T10:11:12;97897.29;;;18.96;73.44
56689;BME280;42565;53.342;-1.534;2023-07-28T10:13:50;97896.68;;;18.43;72.92
56689;BME280;42565;53.342;-1.534;2023-07-28T10:16:18;97898.09;;;17.11;76.74
56689;BME280;42565;53.342;-1.534;2023-07-28T10:18:52;97900.85;;;18.09;76.56
56689;BME280;42565;53.342;-1.534;2023-07-28T10:21:20;97896.87;;;17.42;75.18
56689;BME280;42565;53.342;-1.534;2023-07-28T10:23:54;97896.64;;;18.59;74.47
56689;BME280;42565;53.342;-1.534;2023-07-28T10:26:31;97895.44;;;17.12;77.30
56689;BME280;42565;53.342;-1.534;2023-07-28T10:29:09;97891.50;;;18.12;76.02
56689;BME280;42565;53.342;-1.534;2023-07-28T10:31:36;97900.58;;;18.13;74.51
56689;BME280;42565;53.342;-1.534;2023-07-28T10:34:04;97889.39;;;18.45;76.18
56689;BME280;42565;53.342;-1.534;2023-07-28T10:36:34;97891.58;;;17.20;80.33
56689;BME280;42565;53.342;-1.534;2023-07-28T10:39:13;97893.76;;;17.25;81.27
56689;BME280;42565;53.342;-1.534;2023-07-28T10:42:00;97888.19;;;17.31;77.85
56689;BME280;42565;53.342;-1.534;2023-07-28T10:44:28;97888.75;;;17.13;76.94
56689;BME280;42565;53.342;-1.534;2023-07-28T10:46:56;97887.17;;;17.45;75.92
56689;BME280;42565;53.342;-1.534;2023-07-28T10:49:24;97887.67;;;16.75;75.42
56689;BME280;42565;53.342;-1.534;2023-07-28T10:51:51;97879.63;;;17.18;75.47
56689;BME280;42565;53.342;-1.534;2023-07-28T10:54:19;97879.53;;;16.64;72.87
56689;BME280;42565;53.342;-1.534;2023-07-28T10:56:46;97876.59;;;17.64;72.42
56689;BME280;42565;53.342;-1.534;2023-07-28T10:59:15;97880.69;;;17.76;70.21
56689;BME280;42565;53.342;-1.534;2023-07-28T11:01:43;97883.51;;;17.78;70.83
56689;BME280;42565;53.342;-1.534;2023-07-28T11:04:12;97875.97;;;18.44;67.92
56689;BME280;42565;53.342;-1.534;2023-07-28T11:06:42;97876.02;;;19.10;65.92
56689;BME280;42565;53.342;-1.534;2023-07-28T11:09:10;97871.88;;;19.33;65.61
56689;BME280;42565;53.342;-1.534;2023-07-28T11:11:38;97877.72;;;18.68;65.93
56689;BME280;42565;53.342;-1.534;2023-07-28T11:14:07;97875.89;;;18.76;67.53
56689;BME280;42565;53.342;-1.534;2023-07-28T11:16:36;97877.91;;;19.54;67.88
56689;BME280;42565;53.342;-1.534;2023-07-28T11:19:07;97878.78;;;20.21;63.14
56689;BME280;42565;53.342;-1.534;2023-07-28T11:21:36;97875.11;;;19.71;62.39
56689;BME280;42565;53.342;-1.534;2023-07-28T11:24:04;97880.39;;;19.17;63.46
56689;BME280;42565;53.342;-1.534;2023-07-28T11:26:31;97873.75;;;19.07;63.07
56689;BME280;42565;53.342;-1.534;2023-07-28T11:28:59;97876.51;;;19.55;63.25
56689;BME280;42565;53.342;-1.534;2023-07-28T11:31:26;97879.54;;;19.50;62.06
56689;BME280;42565;53.342;-1.534;2023-07-28T11:33:54;97873.81;;;20.15;61.63
56689;BME280;42565;53.342;-1.534;2023-07-28T11:36:23;97872.19;;;18.81;62.36
56689;BME280;42565;53.342;-1.534;2023-07-28T11:38:51;97879.94;;;19.21;62.65
56689;BME280;42565;53.342;-1.534;2023-07-28T11:41:20;97872.52;;;19.01;62.05
56689;BME280;42565;53.342;-1.534;2023-07-28T11:43:47;97872.51;;;19.24;63.16
56689;BME280;42565;53.342;-1.534;2023-07-28T11:46:47;97871.57;;;19.13;61.45
56689;BME280;42565;53.342;-1.534;2023-07-28T11:49:16;97867.74;;;20.20;59.37
56689;BME280;42565;53.342;-1.534;2023-07-28T11:51:45;97864.53;;;20.58;61.30
56689;BME280;42565;53.342;-1.534;2023-07-28T11:54:13;97869.22;;;20.05;58.97
56689;BME280;42565;53.342;-1.534;2023-07-28T11:56:41;97873.94;;;20.30;60.68
56689;BME280;42565;53.342;-1.534;2023-07-28T11:59:08;97869.92;;;20.56;56.64
56689;BME280;42565;53.342;-1.534;2023-07-28T12:01:51;97873.69;;;20.85;55.26
56689;BME280;42565;53.342;-1.534;2023-07-28T12:04:20;97877.37;;;19.88;57.65
56689;BME280;42565;53.342;-1.534;2023-07-28T12:07:07;97866.31;;;21.13;57.16
56689;BME280;42565;53.342;-1.534;2023-07-28T12:09:48;97865.43;;;21.12;55.21
56689;BME280;42565;53.342;-1.534;2023-07-28T12:12:16;97866.32;;;20.74;54.59
56689;BME280;42565;53.342;-1.534;2023-07-28T12:14:44;97872.67;;;20.53;55.43
56689;BME280;42565;53.342;-1.534;2023-07-28T12:17:12;97876.62;;;20.08;54.98
56689;BME280;42565;53.342;-1.534;2023-07-28T12:19:41;97870.44;;;19.96;56.15
56689;BME280;42565;53.342;-1.534;2023-07-28T12:22:08;97873.82;;;19.80;58.30
56689;BME280;42565;53.342;-1.534;2023-07-28T12:24:36;97869.76;;;18.85;57.09
56689;BME280;42565;53.342;-1.534;2023-07-28T12:27:03;97872.15;;;19.84;58.63
56689;BME280;42565;53.342;-1.534;2023-07-28T12:29:30;97874.67;;;20.20;56.08
56689;BME280;42565;53.342;-1.534;2023-07-28T12:31:57;97866.86;;;19.74;54.52
56689;BME280;42565;53.342;-1.534;2023-07-28T12:34:25;97872.03;;;19.53;55.37
56689;BME280;42565;53.342;-1.534;2023-07-28T12:36:52;97870.13;;;20.35;54.67
56689;BME280;42565;53.342;-1.534;2023-07-28T12:39:20;97865.14;;;20.36;55.28
56689;BME280;42565;53.342;-1.534;2023-07-28T12:41:47;97864.82;;;20.48;55.08
56689;BME280;42565;53.342;-1.534;2023-07-28T12:44:14;97867.50;;;20.48;54.61
56689;BME280;42565;53.342;-1.534;2023-07-28T12:46:41;97862.69;;;20.80;53.91
56689;BME280;42565;53.342;-1.534;2023-07-28T12:49:09;97866.90;;;21.68;53.17
56689;BME280;42565;53.342;-1.534;2023-07-28T12:51:36;97863.54;;;21.43;50.58
56689;BME280;42565;53.342;-1.534;2023-07-28T12:54:04;97866.87;;;20.89;52.03
56689;BME280;42565;53.342;-1.534;2023-07-28T12:56:33;97865.56;;;21.29;52.16
56689;BME280;42565;53.342;-1.534;2023-07-28T12:59:00;97863.23;;;21.43;49.89